createdAt,value
2018-05-21T04:01:10.136Z,55.40
2018-05-21T04:03:55.893Z,55.60
2018-05-21T04:06:24.946Z,56.10
2018-05-21T04:08:53.979Z,56.30
2018-05-21T04:11:23.016Z,56.70
2018-05-21T04:13:52.072Z,56.90
2018-05-21T04:16:21.122Z,57.20
2018-05-21T04:18:50.985Z,58.00
2018-05-21T04:21:20.024Z,58.00
2018-05-21T04:23:49.063Z,57.90
2018-05-21T04:26:18.088Z,58.10
2018-05-21T04:28:47.153Z,58.40
2018-05-21T04:31:16.169Z,58.60
2018-05-21T04:33:45.256Z,58.50
2018-05-21T04:36:14.278Z,59.10
2018-05-21T04:38:43.337Z,59.10
2018-05-21T04:41:12.386Z,59.20
2018-05-21T04:43:42.235Z,59.60
2018-05-21T04:46:11.264Z,59.60
2018-05-21T04:48:40.306Z,59.80
2018-05-21T04:51:10.123Z,60.10
2018-05-21T04:53:39.162Z,60.10
2018-05-21T04:56:08.175Z,60.30
2018-05-21T04:58:37.237Z,60.20
2018-05-21T05:01:06.273Z,59.90
2018-05-21T05:03:35.388Z,59.80
2018-05-21T05:06:04.439Z,59.60
2018-05-21T05:08:33.551Z,58.90
2018-05-21T05:11:02.589Z,59.20
2018-05-21T05:13:31.620Z,58.90
2018-05-21T05:16:00.654Z,58.30
2018-05-21T05:18:29.684Z,58.20
2018-05-21T05:20:58.739Z,57.60
2018-05-21T05:23:27.742Z,57.70
2018-05-21T05:25:56.797Z,58.00
2018-05-21T05:28:25.811Z,57.70
2018-05-21T05:30:54.833Z,58.20
2018-05-21T05:33:23.867Z,57.40
2018-05-21T05:35:52.945Z,56.80
2018-05-21T05:38:21.968Z,56.60
2018-05-21T05:40:50.984Z,56.70
2018-05-21T05:43:20.821Z,55.80
2018-05-21T05:45:49.839Z,55.80
2018-05-21T05:48:18.848Z,55.60
2018-05-21T05:50:47.913Z,55.70
2018-05-21T05:53:16.949Z,55.40
2018-05-21T05:55:45.957Z,55.30
2018-05-21T05:58:15.764Z,55.00
2018-05-21T06:00:44.815Z,54.90
2018-05-21T06:03:13.836Z,55.10
2018-05-21T06:05:42.876Z,54.70
2018-05-21T06:08:11.897Z,54.50
2018-05-21T06:10:40.932Z,54.60
2018-05-21T06:13:10.723Z,53.90
2018-05-21T06:15:39.772Z,53.80
2018-05-21T06:18:08.779Z,53.80
2018-05-21T06:20:38.106Z,53.60
2018-05-21T06:23:07.115Z,53.70
2018-05-21T06:25:36.119Z,53.60
2018-05-21T06:28:05.927Z,53.00
2018-05-21T06:30:34.943Z,53.00
2018-05-21T06:33:03.990Z,53.40
2018-05-21T06:35:33.051Z,51.90
2018-05-21T06:38:02.071Z,51.90
2018-05-21T06:40:31.104Z,52.30
2018-05-21T06:43:00.119Z,51.50
2018-05-21T06:45:29.187Z,51.60
2018-05-21T06:47:58.191Z,50.40
2018-05-21T06:50:27.215Z,50.50
2018-05-21T06:52:56.264Z,50.30
2018-05-21T06:55:25.301Z,50.90
2018-05-21T06:57:54.624Z,49.20
2018-05-21T07:00:23.680Z,49.80
2018-05-21T07:02:52.691Z,50.00
2018-05-21T07:05:21.755Z,49.00
2018-05-21T07:07:51.545Z,49.30
2018-05-21T07:10:20.547Z,49.20
2018-05-21T07:12:49.662Z,49.10
2018-05-21T07:15:19.446Z,49.00
2018-05-21T07:17:48.451Z,48.90
2018-05-21T07:20:18.300Z,49.10
2018-05-21T07:22:47.307Z,48.20
2018-05-21T07:25:16.328Z,47.80
2018-05-21T07:27:45.396Z,47.60
2018-05-21T07:30:14.411Z,47.60
2018-05-21T07:32:43.436Z,46.80
2018-05-21T07:35:12.478Z,46.90
2018-05-21T07:37:41.494Z,46.80
2018-05-21T07:40:10.531Z,46.50
2018-05-21T07:42:40.347Z,45.90
2018-05-21T07:45:09.400Z,45.90
2018-05-21T07:47:38.416Z,46.10
2018-05-21T07:50:08.315Z,46.20
2018-05-21T07:52:37.353Z,46.20
2018-05-21T07:55:06.385Z,45.20
2018-05-21T07:57:35.456Z,45.20
2018-05-21T15:01:57.364Z,18.50
2018-05-21T15:04:26.384Z,19.10
2018-05-21T15:06:55.462Z,19.90
2018-05-21T15:09:24.467Z,21.40
2018-05-21T15:11:53.494Z,21.50
2018-05-21T15:14:22.567Z,23.10
2018-05-21T15:16:52.177Z,23.20
2018-05-21T15:19:21.593Z,23.20
2018-05-21T15:21:50.768Z,23.00
2018-05-21T15:24:19.931Z,22.30
2018-05-21T15:26:49.179Z,22.70
2018-05-21T15:29:18.256Z,23.90
2018-05-21T15:31:47.479Z,25.10
2018-05-21T15:34:17.035Z,24.70
2018-05-21T15:36:46.131Z,24.50
2018-05-21T15:39:15.219Z,25.30
2018-05-21T15:41:44.770Z,26.60
2018-05-21T15:44:14.496Z,26.30
2018-05-21T15:46:43.722Z,26.90
2018-05-21T15:49:12.845Z,27.70
2018-05-21T15:51:42.623Z,27.90
2018-05-21T15:54:12.436Z,28.20
2018-05-21T15:56:42.221Z,29.00
2018-05-21T15:59:11.378Z,29.00
2018-05-21T16:01:41.185Z,29.90
2018-05-21T16:04:22.793Z,29.50
2018-05-21T16:06:52.105Z,30.30
2018-05-21T16:09:21.247Z,28.80
2018-05-21T16:11:50.318Z,28.90
2018-05-21T16:14:19.447Z,27.50
2018-05-21T16:16:48.502Z,25.80
2018-05-21T16:19:17.630Z,26.50
2018-05-21T16:21:47.394Z,25.50
2018-05-21T16:24:16.407Z,26.00
2018-05-21T16:26:46.283Z,24.80
2018-05-21T16:29:16.172Z,24.80
2018-05-21T16:31:45.174Z,25.60
2018-05-21T16:34:14.223Z,26.20
2018-05-21T16:36:43.248Z,27.10
2018-05-21T16:39:12.292Z,28.20
2018-05-21T16:41:42.026Z,27.80
2018-05-21T16:44:11.126Z,27.80
2018-05-21T16:46:40.169Z,28.80
2018-05-21T16:49:09.184Z,28.90
2018-05-21T16:51:38.240Z,27.50
2018-05-21T16:54:07.340Z,28.10
2018-05-21T16:56:36.307Z,29.10
2018-05-21T16:59:06.128Z,28.40
2018-05-21T17:01:35.139Z,28.30
2018-05-21T17:04:04.187Z,28.90
2018-05-21T17:06:33.204Z,27.70
2018-05-21T17:09:02.271Z,28.40
2018-05-21T17:11:31.308Z,28.70
2018-05-21T17:14:00.324Z,28.50
2018-05-21T17:16:29.389Z,28.90
2018-05-21T17:18:58.399Z,28.90
2018-05-21T17:21:27.414Z,29.70
2018-05-21T17:23:56.484Z,30.20
2018-05-21T17:26:25.504Z,30.90
2018-05-21T17:28:54.526Z,30.70
2018-05-21T17:31:23.568Z,31.00
2018-05-21T17:33:52.619Z,31.00
2018-05-21T17:36:21.627Z,31.10
2018-05-21T17:38:50.679Z,31.40
2018-05-21T17:41:19.699Z,31.10
2018-05-21T17:43:48.752Z,31.40
2018-05-21T17:46:17.763Z,33.80
2018-05-21T17:48:46.770Z,35.40
2018-05-21T17:51:19.645Z,36.00
2018-05-21T17:53:59.828Z,36.30
2018-05-21T17:56:29.641Z,36.70
2018-05-21T17:58:58.646Z,38.20
2018-05-21T18:01:27.703Z,39.10
2018-05-21T18:03:56.737Z,39.90
2018-05-21T18:06:28.450Z,40.70
2018-05-21T18:08:58.210Z,41.30
2018-05-21T18:11:31.907Z,42.20
2018-05-21T18:14:02.144Z,43.70
2018-05-21T18:16:31.459Z,43.90
2018-05-21T18:19:06.078Z,44.90
2018-05-21T18:21:35.279Z,44.80
2018-05-21T18:24:04.546Z,45.10
2018-05-21T18:26:37.171Z,45.10
2018-05-21T18:29:09.892Z,45.30
2018-05-21T18:31:42.951Z,46.20
2018-05-21T18:34:12.859Z,46.60
2018-05-21T18:36:41.899Z,47.00
2018-05-21T18:39:12.401Z,47.40
2018-05-21T18:41:41.837Z,47.30
2018-05-21T18:44:10.850Z,47.60
2018-05-21T18:46:39.872Z,48.20
2018-05-21T18:49:08.940Z,47.90
2018-05-21T18:51:37.964Z,48.10
2018-05-21T18:54:07.015Z,48.70
2018-05-21T18:56:36.056Z,49.30
2018-05-21T18:59:05.059Z,49.50
2018-05-21T19:01:34.119Z,49.70
2018-05-21T19:04:03.125Z,49.90
2018-05-21T19:06:32.159Z,50.30
2018-05-21T19:09:01.944Z,50.80
2018-05-21T19:11:31.121Z,50.70
2018-05-21T19:14:00.136Z,51.20
2018-05-21T19:16:29.254Z,51.50
2018-05-21T19:18:58.413Z,51.50
2018-05-21T19:21:27.428Z,51.80
2018-05-21T19:23:56.467Z,51.90
2018-05-21T19:26:26.322Z,52.00
2018-05-21T19:28:55.368Z,52.00
2018-05-21T19:31:24.374Z,52.20
2018-05-21T19:33:53.424Z,52.70
2018-05-21T19:36:22.456Z,53.40
2018-05-21T19:38:51.800Z,51.90
2018-05-21T19:41:21.908Z,53.10
2018-05-21T19:43:51.031Z,52.30
2018-05-21T19:46:20.046Z,52.50
2018-05-21T19:48:49.127Z,52.50
2018-05-21T19:51:19.090Z,52.10
2018-05-21T19:53:48.101Z,52.00
2018-05-21T19:56:17.634Z,50.70
2018-05-21T19:58:46.696Z,50.50
2018-05-21T20:01:15.724Z,50.70
2018-05-21T20:03:44.755Z,50.40
2018-05-21T20:06:13.854Z,50.60
2018-05-21T20:08:42.817Z,50.70
2018-05-21T20:11:14.215Z,50.00
2018-05-21T20:13:43.928Z,49.60
2018-05-21T20:16:12.887Z,49.40
2018-05-21T20:18:41.926Z,50.40
2018-05-21T20:21:10.953Z,51.40
2018-05-21T20:23:40.007Z,51.70
2018-05-21T20:26:09.027Z,51.60
2018-05-21T20:28:38.070Z,52.20
2018-05-21T20:31:07.091Z,52.30
2018-05-21T20:33:36.147Z,52.60
2018-05-21T20:36:05.187Z,52.80
2018-05-21T20:38:34.239Z,53.10
2018-05-21T20:41:03.248Z,53.50
2018-05-21T20:43:32.303Z,53.50
2018-05-21T20:46:02.087Z,53.70
2018-05-21T20:48:31.106Z,53.70
2018-05-21T20:51:00.933Z,53.30
2018-05-21T20:53:29.977Z,53.20
2018-05-21T20:55:59.000Z,53.70
2018-05-21T20:58:28.818Z,54.10
2018-05-21T21:00:57.823Z,54.10
2018-05-21T21:03:26.900Z,54.40
2018-05-21T21:05:56.698Z,54.40
2018-05-21T21:08:25.709Z,54.40
2018-05-21T21:10:55.520Z,55.60
2018-05-21T21:13:24.548Z,55.50
2018-05-21T21:15:53.564Z,56.10
2018-05-21T21:18:22.612Z,56.90
2018-05-21T21:20:51.623Z,57.20
2018-05-21T21:23:20.688Z,57.30
2018-05-21T21:25:49.700Z,57.10
2018-05-21T21:28:18.714Z,57.00
2018-05-21T21:30:47.723Z,56.80
2018-05-21T21:33:16.778Z,57.20
2018-05-21T21:35:45.816Z,57.00
2018-05-21T21:38:14.833Z,57.20
2018-05-21T21:40:43.868Z,57.80
2018-05-21T21:43:12.871Z,57.70
2018-05-21T21:45:41.927Z,57.60
2018-05-21T21:48:11.700Z,57.20
2018-05-21T21:50:40.720Z,57.20
2018-05-21T21:53:10.532Z,58.00
2018-05-21T21:55:40.343Z,58.30
2018-05-21T21:58:10.140Z,58.30
